KSWF/SWF METAR and TAF weather

Enter ICAO airport designator
Station Type Date Time Source
KSWF METAR 2019/06/27 03:45 UTC NOAA

KSWF 270345Z 00000KT 10SM SKC 19/19 A3008


Station Type Date Time Source
KSWF Decoded METAR 2019/06/27 03:45 UTC NOAA

Newburgh / Stewart, NY, United States (KSWF) 41-30N 074-06W
Jun 26, 2019 - 11:45 PM EDT / 2019.06.27 0345 UTC
Wind: Calm:0
Visibility: 10 mile(s):0
Sky conditions: clear
Temperature: 66 F (19 C)
Dew Point: 66 F (19 C)
Relative Humidity: 100%
Pressure (altimeter): 30.08 in. Hg (1018 hPa)
ob: KSWF 270345Z 00000KT 10SM SKC 19/19 A3008
cycle: 4

Station Type Date Time Source
KSWF TAF 2019/06/27 02:30 UTC NOAA

TAF
AMD KSWF 270229Z 2702/2806 VRB03KT P6SM FEW250
FM271100 29005KT P6SM FEW250
FM272000 31008KT P6SM FEW060
FM280300 VRB04KT P6SM FEW250
AMD NOT SKED

Example: see airport list